createdAt,value
2022-10-05T00:02:26.724Z,11.02
2022-10-05T00:04:59.411Z,11.05
2022-10-05T00:07:31.518Z,11.00
2022-10-05T00:10:01.423Z,11.01
2022-10-05T00:12:31.643Z,11.02
2022-10-05T00:15:02.555Z,11.15
2022-10-05T00:17:34.134Z,11.21
2022-10-05T00:20:09.590Z,11.35
2022-10-05T00:22:38.651Z,11.44
2022-10-05T00:25:17.523Z,11.50
2022-10-05T00:27:56.163Z,11.62
2022-10-05T00:30:32.147Z,11.59
2022-10-05T00:33:01.184Z,11.65
2022-10-05T00:35:30.949Z,11.71
2022-10-05T00:37:59.761Z,11.69
2022-10-05T00:40:42.872Z,11.67
2022-10-05T00:43:43.854Z,11.71
2022-10-05T00:46:18.905Z,11.84
2022-10-05T00:49:01.480Z,11.79
2022-10-05T00:51:35.407Z,11.84
2022-10-05T00:54:26.939Z,11.83
2022-10-05T00:57:35.189Z,11.85
2022-10-05T01:00:13.120Z,11.88
2022-10-05T01:02:57.977Z,11.92
2022-10-05T01:05:51.838Z,11.98
2022-10-05T01:08:38.471Z,11.82
2022-10-05T01:11:20.165Z,11.97
2022-10-05T01:14:01.599Z,11.90
2022-10-05T01:16:41.192Z,11.91
2022-10-05T01:19:44.570Z,11.92
2022-10-05T01:22:32.002Z,11.87
2022-10-05T01:25:24.666Z,11.91
2022-10-05T01:28:04.375Z,11.97
2022-10-05T01:30:44.418Z,12.09
2022-10-05T01:33:26.897Z,12.04
2022-10-05T01:36:07.960Z,12.03
2022-10-05T01:38:49.360Z,11.97
2022-10-05T01:41:33.844Z,11.97
2022-10-05T01:44:11.475Z,12.05
2022-10-05T01:46:46.174Z,12.08
2022-10-05T01:49:37.909Z,11.97
2022-10-05T01:52:29.059Z,12.02
2022-10-05T01:55:19.075Z,12.06
2022-10-05T01:58:07.790Z,11.98
2022-10-05T02:00:50.947Z,11.95
2022-10-05T02:03:26.686Z,11.91
2022-10-05T02:06:03.965Z,11.87
2022-10-05T02:08:41.047Z,11.85
2022-10-05T02:11:13.342Z,11.85
2022-10-05T02:13:45.757Z,11.80
2022-10-05T02:16:24.698Z,11.80
2022-10-05T02:18:59.626Z,11.86
2022-10-05T02:21:31.161Z,11.81
2022-10-05T02:24:08.290Z,11.91
2022-10-05T02:26:38.992Z,11.84
2022-10-05T02:29:12.698Z,11.86
2022-10-05T02:31:51.811Z,11.97
2022-10-05T02:34:27.676Z,11.95
2022-10-05T02:37:21.896Z,12.12
2022-10-05T02:40:24.187Z,12.15
2022-10-05T02:43:05.846Z,12.22
2022-10-05T02:45:51.199Z,12.26
2022-10-05T02:48:38.165Z,12.37
2022-10-05T02:51:19.922Z,12.35
2022-10-05T02:54:07.249Z,12.27
2022-10-05T02:56:47.998Z,12.25
2022-10-05T02:59:25.613Z,12.35
2022-10-05T03:02:01.357Z,12.22
2022-10-05T03:04:42.339Z,12.31
2022-10-05T03:07:20.125Z,12.26
2022-10-05T03:10:01.478Z,12.25
2022-10-05T03:12:53.992Z,12.27
2022-10-05T03:15:55.077Z,12.21
2022-10-05T03:18:44.669Z,12.28
2022-10-05T03:21:36.704Z,12.33
2022-10-05T03:24:31.081Z,12.37
2022-10-05T03:27:11.252Z,12.39
2022-10-05T03:29:48.696Z,12.42
2022-10-05T03:32:30.431Z,12.40
2022-10-05T03:35:07.996Z,12.40
2022-10-05T03:37:49.623Z,12.39
2022-10-05T03:40:35.310Z,12.36
2022-10-05T03:43:26.981Z,12.23
2022-10-05T03:46:07.370Z,12.19
2022-10-05T03:48:46.008Z,12.15
2022-10-05T03:51:32.515Z,12.08
2022-10-05T03:54:13.152Z,12.16
2022-10-05T03:56:50.781Z,12.05
2022-10-05T03:59:32.125Z,12.07
2022-10-05T04:02:06.661Z,12.00
2022-10-05T04:04:42.049Z,11.96
2022-10-05T04:07:37.656Z,11.88
2022-10-05T04:10:17.612Z,11.92
2022-10-05T04:12:54.244Z,11.95
2022-10-05T04:15:34.857Z,11.92
2022-10-05T04:18:12.954Z,11.87
2022-10-05T04:20:52.188Z,11.88
2022-10-05T04:23:34.879Z,11.91
2022-10-05T04:26:12.163Z,11.84
2022-10-05T04:28:55.763Z,11.84
2022-10-05T04:31:56.842Z,11.90
2022-10-05T04:35:06.243Z,11.93
2022-10-05T04:37:48.653Z,11.92
2022-10-05T04:40:41.316Z,11.96
2022-10-05T04:43:20.973Z,12.00
2022-10-05T04:46:25.688Z,11.93
2022-10-05T04:49:36.768Z,11.91
2022-10-05T04:52:17.975Z,11.92
2022-10-05T04:55:10.157Z,12.02
2022-10-05T04:57:51.052Z,12.03
2022-10-05T05:00:26.649Z,12.02
2022-10-05T05:03:36.282Z,12.08
2022-10-05T05:06:23.975Z,11.99
2022-10-05T05:09:18.347Z,12.00
2022-10-05T05:12:21.566Z,11.98
2022-10-05T05:15:12.393Z,12.03
2022-10-05T05:18:07.853Z,12.04
2022-10-05T05:20:56.071Z,12.01
2022-10-05T05:23:38.897Z,12.15
2022-10-05T05:26:24.129Z,12.03
2022-10-05T05:29:08.502Z,12.06
2022-10-05T05:31:46.015Z,12.05
2022-10-05T05:34:42.321Z,12.04
2022-10-05T05:37:23.297Z,12.18
2022-10-05T05:40:08.531Z,12.11
2022-10-05T05:42:51.216Z,12.11
2022-10-05T05:45:28.374Z,12.17
2022-10-05T05:48:02.235Z,12.18
2022-10-05T05:50:49.067Z,12.17
2022-10-05T05:53:25.291Z,12.21
2022-10-05T05:56:05.886Z,12.16
2022-10-05T05:58:44.672Z,12.15
2022-10-05T06:01:32.817Z,12.12
2022-10-05T06:04:12.576Z,12.15
2022-10-05T06:06:50.033Z,12.26
2022-10-05T06:09:30.251Z,12.21
2022-10-05T06:12:07.625Z,12.23
2022-10-05T06:14:49.981Z,12.25
2022-10-05T06:17:28.813Z,12.26
2022-10-05T06:20:05.793Z,12.23
2022-10-05T06:22:44.312Z,12.35
2022-10-05T06:25:29.902Z,12.42
2022-10-05T06:28:11.329Z,12.36
2022-10-05T06:30:54.205Z,12.44
2022-10-05T06:33:45.049Z,12.44
2022-10-05T06:36:28.262Z,12.52
2022-10-05T06:39:33.425Z,12.53
2022-10-05T06:42:56.480Z,12.64
2022-10-05T06:45:48.281Z,12.67
2022-10-05T06:48:30.170Z,12.69
2022-10-05T06:51:10.598Z,12.68
2022-10-05T06:53:49.936Z,12.68
2022-10-05T06:56:45.676Z,12.75
2022-10-05T06:59:26.521Z,12.87
2022-10-05T07:02:18.405Z,12.82
2022-10-05T07:05:49.761Z,12.95
2022-10-05T07:08:29.506Z,12.81
2022-10-05T07:11:15.562Z,13.00
2022-10-05T07:14:18.662Z,13.01
2022-10-05T07:17:15.594Z,13.14
2022-10-05T07:19:56.945Z,13.05
2022-10-05T07:23:05.644Z,13.12
2022-10-05T07:25:43.969Z,13.28
2022-10-05T07:28:20.640Z,13.34
2022-10-05T07:31:00.062Z,13.58
2022-10-05T07:33:37.265Z,13.65
2022-10-05T07:36:38.117Z,13.67
2022-10-05T07:39:18.350Z,13.79
2022-10-05T07:41:57.240Z,13.66
2022-10-05T07:44:36.231Z,13.62
2022-10-05T07:47:16.856Z,13.59
2022-10-05T07:49:59.793Z,13.69
2022-10-05T07:52:38.216Z,13.73
2022-10-05T07:55:21.403Z,13.94
2022-10-05T07:58:13.280Z,13.84
2022-10-05T08:01:02.119Z,14.11
2022-10-05T08:03:52.417Z,14.21
2022-10-05T08:06:39.518Z,14.42
2022-10-05T08:09:28.269Z,14.51
2022-10-05T08:12:17.117Z,14.68
2022-10-05T08:14:54.379Z,14.81
2022-10-05T08:17:39.912Z,14.77
2022-10-05T08:20:34.310Z,14.78
2022-10-05T08:23:14.666Z,14.83
2022-10-05T08:25:57.431Z,14.84
2022-10-05T08:28:32.177Z,14.76
2022-10-05T08:31:15.018Z,14.74
2022-10-05T08:33:58.736Z,14.62
2022-10-05T08:36:54.062Z,14.98
2022-10-05T08:39:28.350Z,14.96
2022-10-05T08:42:38.278Z,14.92
2022-10-05T08:46:02.096Z,15.07
2022-10-05T08:49:24.358Z,15.49
2022-10-05T08:52:29.527Z,15.96
2022-10-05T08:55:45.202Z,16.12
2022-10-05T08:59:29.805Z,16.17
2022-10-05T09:02:21.012Z,16.08
2022-10-05T09:05:12.083Z,16.44
2022-10-05T09:08:25.236Z,16.45
2022-10-05T09:11:05.024Z,15.83
2022-10-05T09:14:36.171Z,15.98
2022-10-05T09:17:40.494Z,15.98
2022-10-05T09:20:32.535Z,16.08
2022-10-05T09:23:13.926Z,16.23
2022-10-05T09:26:01.151Z,16.12
2022-10-05T09:28:55.965Z,16.47
2022-10-05T09:32:01.525Z,16.99
2022-10-05T09:34:59.205Z,16.86
2022-10-05T09:37:57.858Z,17.04
2022-10-05T09:41:25.158Z,17.56
2022-10-05T09:45:04.544Z,17.06
2022-10-05T09:48:27.393Z,17.13
2022-10-05T09:51:53.750Z,17.34
2022-10-05T09:55:08.742Z,18.24
2022-10-05T09:58:40.929Z,17.77
2022-10-05T10:01:37.607Z,17.99
2022-10-05T10:04:41.266Z,17.92
2022-10-05T10:07:55.816Z,17.66
2022-10-05T10:11:17.606Z,17.64
2022-10-05T10:14:39.650Z,17.56
2022-10-05T10:17:33.964Z,17.63
2022-10-05T10:20:40.040Z,17.80
2022-10-05T10:24:08.297Z,17.96
2022-10-05T10:27:05.914Z,17.52
2022-10-05T10:30:19.069Z,17.52
2022-10-05T10:33:54.953Z,17.01
2022-10-05T10:36:47.728Z,17.33
2022-10-05T10:39:34.809Z,17.96
2022-10-05T10:42:38.770Z,17.64
2022-10-05T10:45:45.686Z,17.69
2022-10-05T10:48:55.463Z,17.67
2022-10-05T10:51:54.451Z,17.71
2022-10-05T10:55:00.172Z,17.82
2022-10-05T10:57:50.740Z,17.81
2022-10-05T11:00:42.259Z,17.55
2022-10-05T11:04:01.410Z,17.18
2022-10-05T11:07:05.664Z,16.50
2022-10-05T11:10:15.756Z,16.39
2022-10-05T11:13:26.469Z,16.88
2022-10-05T11:16:44.399Z,17.08
2022-10-05T11:20:05.249Z,17.34
2022-10-05T11:22:56.053Z,17.94
2022-10-05T11:26:06.139Z,17.57
2022-10-05T11:29:12.478Z,17.01
2022-10-05T11:32:20.136Z,16.84
2022-10-05T11:35:24.904Z,16.74
2022-10-05T11:38:23.154Z,16.81
2022-10-05T11:41:45.464Z,16.80
2022-10-05T11:45:14.038Z,16.47
2022-10-05T11:48:01.920Z,16.41
2022-10-05T11:50:52.977Z,16.49
2022-10-05T11:53:30.457Z,16.47
2022-10-05T11:56:15.613Z,16.47
2022-10-05T11:58:57.644Z,16.42
2022-10-05T12:01:39.334Z,16.53
2022-10-05T12:04:21.542Z,16.54
2022-10-05T12:07:14.002Z,16.28
2022-10-05T12:10:17.563Z,16.30
2022-10-05T12:13:06.192Z,16.38
2022-10-05T12:15:47.430Z,16.46
2022-10-05T12:18:42.695Z,16.46
2022-10-05T12:21:23.263Z,16.38
2022-10-05T12:24:00.171Z,16.61
2022-10-05T12:27:00.140Z,16.73
2022-10-05T12:29:39.526Z,16.75
2022-10-05T12:32:17.942Z,16.87
2022-10-05T12:35:01.834Z,16.78
2022-10-05T12:37:47.985Z,16.69
2022-10-05T12:40:28.111Z,16.76
2022-10-05T12:43:11.891Z,16.85
2022-10-05T12:46:10.355Z,16.85
2022-10-05T12:49:19.285Z,16.90
2022-10-05T12:51:58.593Z,16.65
2022-10-05T12:54:46.503Z,16.76
2022-10-05T12:57:28.383Z,16.91
2022-10-05T13:00:07.372Z,17.10
2022-10-05T13:02:45.398Z,17.14
2022-10-05T13:05:28.034Z,17.16
2022-10-05T13:08:26.070Z,17.16
2022-10-05T13:11:12.718Z,16.91
2022-10-05T13:13:57.224Z,16.84
2022-10-05T13:16:39.677Z,16.90
2022-10-05T13:19:29.289Z,16.97
2022-10-05T13:22:27.090Z,16.92
2022-10-05T13:25:19.883Z,16.89
2022-10-05T13:28:00.650Z,16.71
2022-10-05T13:30:30.434Z,16.92
2022-10-05T13:33:08.255Z,17.06
2022-10-05T13:35:47.364Z,17.02
2022-10-05T13:38:36.471Z,16.93
2022-10-05T13:41:18.932Z,16.98
2022-10-05T13:44:01.297Z,17.15
2022-10-05T13:46:39.228Z,17.06
2022-10-05T13:49:26.546Z,16.83
2022-10-05T13:52:08.840Z,16.93
2022-10-05T13:54:47.800Z,16.93
2022-10-05T13:57:36.351Z,16.70
2022-10-05T14:00:16.679Z,16.85
2022-10-05T14:02:50.957Z,17.02
2022-10-05T14:05:24.580Z,16.94
2022-10-05T14:07:58.604Z,16.87
2022-10-05T14:10:39.834Z,16.83
2022-10-05T14:13:26.652Z,17.24
2022-10-05T14:16:16.238Z,17.55
2022-10-05T14:18:59.475Z,17.04
2022-10-05T14:21:33.350Z,16.89
2022-10-05T14:24:43.159Z,16.67
2022-10-05T14:27:29.376Z,16.50
2022-10-05T14:30:02.331Z,16.64
2022-10-05T14:32:34.834Z,16.68
2022-10-05T14:35:18.652Z,16.61
2022-10-05T14:37:57.397Z,16.51
2022-10-05T14:40:37.993Z,16.58
2022-10-05T14:43:21.774Z,16.55
2022-10-05T14:45:59.665Z,16.56
2022-10-05T14:48:30.721Z,16.57
2022-10-05T14:51:03.904Z,16.45
2022-10-05T14:53:47.410Z,16.56
2022-10-05T14:56:45.171Z,16.34
2022-10-05T14:59:49.537Z,16.42
2022-10-05T15:02:52.684Z,16.37
2022-10-05T15:05:31.566Z,16.37
2022-10-05T15:08:21.323Z,16.18
2022-10-05T15:11:01.695Z,16.14
2022-10-05T15:13:35.469Z,16.26
2022-10-05T15:16:18.652Z,16.22
2022-10-05T15:18:59.079Z,16.30
2022-10-05T15:21:54.636Z,16.32
2022-10-05T15:24:28.245Z,16.22
2022-10-05T15:27:02.760Z,16.24
2022-10-05T15:29:58.393Z,16.15
2022-10-05T15:32:47.847Z,16.16
2022-10-05T15:35:55.539Z,16.23
2022-10-05T15:38:28.170Z,16.12
2022-10-05T15:41:09.508Z,16.09
2022-10-05T15:44:00.627Z,16.03
2022-10-05T15:46:41.351Z,16.03
2022-10-05T15:49:30.715Z,15.91
2022-10-05T15:52:17.734Z,15.87
2022-10-05T15:55:22.322Z,15.90
2022-10-05T15:58:24.591Z,15.69
2022-10-05T16:01:06.600Z,15.84
2022-10-05T16:04:02.692Z,15.84
2022-10-05T16:07:01.125Z,15.77
2022-10-05T16:09:44.376Z,15.69
2022-10-05T16:12:27.683Z,15.56
2022-10-05T16:15:19.247Z,15.62
2022-10-05T16:18:44.023Z,15.59
2022-10-05T16:21:28.106Z,15.54
2022-10-05T16:24:19.374Z,15.49
2022-10-05T16:26:59.830Z,15.48
2022-10-05T16:29:48.320Z,15.46
2022-10-05T16:32:23.848Z,15.46
2022-10-05T16:35:11.013Z,15.42
2022-10-05T16:37:54.410Z,15.39
2022-10-05T16:40:39.508Z,15.33
2022-10-05T16:43:29.160Z,15.31
2022-10-05T16:46:13.601Z,15.30
2022-10-05T16:48:56.392Z,15.24
2022-10-05T16:51:43.273Z,15.26
2022-10-05T16:54:20.973Z,15.23
2022-10-05T16:56:56.062Z,15.19
2022-10-05T17:00:13.487Z,15.21
2022-10-05T17:03:27.533Z,15.20
2022-10-05T17:06:27.434Z,15.13
2022-10-05T17:09:31.600Z,15.13
2022-10-05T17:12:21.514Z,15.15
2022-10-05T17:15:13.422Z,15.19
2022-10-05T17:18:12.827Z,15.17
2022-10-05T17:20:51.768Z,15.13
2022-10-05T17:23:39.933Z,15.05
2022-10-05T17:26:55.534Z,15.10
2022-10-05T17:29:47.760Z,15.07
2022-10-05T17:32:56.591Z,14.98
2022-10-05T17:35:52.063Z,15.09
2022-10-05T17:38:24.759Z,15.07
2022-10-05T17:41:18.391Z,15.06
2022-10-05T17:44:26.410Z,15.11
2022-10-05T17:46:58.698Z,15.18
2022-10-05T17:50:16.286Z,15.22
2022-10-05T17:53:40.606Z,15.17
2022-10-05T17:56:10.713Z,15.12
2022-10-05T17:59:06.912Z,15.13
2022-10-05T18:01:41.878Z,15.14
2022-10-05T18:04:42.548Z,15.14
2022-10-05T18:07:30.224Z,15.19
2022-10-05T18:10:17.526Z,15.19
2022-10-05T18:12:52.566Z,15.20
2022-10-05T18:15:50.533Z,15.20
2022-10-05T18:18:59.724Z,15.18
2022-10-05T18:21:40.521Z,15.15
2022-10-05T18:24:56.215Z,15.15
2022-10-05T18:28:00.520Z,15.14
2022-10-05T18:30:41.277Z,15.12
2022-10-05T18:33:54.749Z,15.17
2022-10-05T18:36:48.310Z,15.14
2022-10-05T18:39:42.440Z,15.21
2022-10-05T18:42:27.439Z,15.16
2022-10-05T18:45:09.380Z,15.17
2022-10-05T18:47:48.708Z,15.19
2022-10-05T18:50:30.884Z,15.19
2022-10-05T18:53:25.536Z,15.20
2022-10-05T18:56:03.777Z,15.21
2022-10-05T18:58:54.499Z,15.22
2022-10-05T19:01:51.628Z,15.19
2022-10-05T19:04:38.661Z,15.17
2022-10-05T19:07:27.110Z,15.24
2022-10-05T19:10:16.135Z,15.16
2022-10-05T19:13:07.875Z,15.10
2022-10-05T19:15:50.313Z,15.12
2022-10-05T19:18:44.987Z,15.03
2022-10-05T19:21:29.781Z,14.94
2022-10-05T19:24:32.979Z,14.96
2022-10-05T19:27:18.244Z,14.99
2022-10-05T19:30:11.817Z,14.95
2022-10-05T19:33:09.487Z,14.95
2022-10-05T19:36:02.465Z,14.97
2022-10-05T19:38:44.440Z,15.05
2022-10-05T19:41:25.297Z,15.00
2022-10-05T19:44:18.493Z,14.96
2022-10-05T19:47:01.100Z,14.92
2022-10-05T19:49:45.028Z,14.93
2022-10-05T19:52:26.635Z,14.87
2022-10-05T19:55:13.244Z,14.92
2022-10-05T19:57:49.300Z,15.00
2022-10-05T20:00:29.779Z,15.03
2022-10-05T20:03:21.150Z,14.88
2022-10-05T20:05:53.374Z,14.91
2022-10-05T20:08:27.383Z,14.77
2022-10-05T20:11:13.004Z,14.76
2022-10-05T20:13:47.727Z,14.82
2022-10-05T20:16:52.643Z,14.77
2022-10-05T20:19:57.866Z,14.74
2022-10-05T20:22:46.591Z,14.69
2022-10-05T20:25:32.395Z,14.61
2022-10-05T20:28:03.152Z,14.67
2022-10-05T20:30:34.833Z,14.58
2022-10-05T20:33:12.082Z,14.62
2022-10-05T20:35:45.442Z,14.70
2022-10-05T20:38:14.135Z,14.55
2022-10-05T20:40:46.916Z,14.48
2022-10-05T20:43:16.053Z,14.46
2022-10-05T20:45:44.912Z,14.50
2022-10-05T20:48:16.670Z,14.55
2022-10-05T20:50:45.527Z,14.50
2022-10-05T20:53:14.411Z,14.41
2022-10-05T20:55:46.284Z,14.42
2022-10-05T20:58:15.939Z,14.47
2022-10-05T21:01:02.134Z,14.56
2022-10-05T21:03:32.295Z,14.61
2022-10-05T21:06:00.862Z,14.47
2022-10-05T21:08:30.105Z,14.58
2022-10-05T21:10:59.115Z,14.56
2022-10-05T21:13:27.856Z,14.81
2022-10-05T21:15:56.912Z,15.01
2022-10-05T21:18:26.175Z,15.11
2022-10-05T21:21:01.989Z,15.29
2022-10-05T21:23:32.714Z,15.37
2022-10-05T21:26:04.953Z,15.40
2022-10-05T21:28:36.437Z,15.47
2022-10-05T21:31:05.949Z,15.47
2022-10-05T21:33:38.050Z,15.45
2022-10-05T21:36:08.498Z,15.42
2022-10-05T21:38:37.360Z,15.27
2022-10-05T21:41:06.403Z,15.31
2022-10-05T21:43:35.488Z,15.28
2022-10-05T21:46:07.998Z,15.25
2022-10-05T21:48:41.309Z,15.29
2022-10-05T21:51:16.691Z,15.38
2022-10-05T21:53:52.038Z,15.34
2022-10-05T21:56:25.622Z,15.27
2022-10-05T21:58:54.631Z,15.12
2022-10-05T22:01:23.717Z,15.08
2022-10-05T22:03:52.524Z,15.29
2022-10-05T22:06:23.256Z,15.16
2022-10-05T22:08:52.197Z,15.04
2022-10-05T22:11:21.161Z,15.05
2022-10-05T22:13:54.577Z,15.05
2022-10-05T22:16:27.206Z,15.10
2022-10-05T22:18:55.960Z,15.13
2022-10-05T22:21:26.232Z,15.16
2022-10-05T22:23:54.921Z,15.09
2022-10-05T22:26:26.245Z,15.12
2022-10-05T22:28:56.992Z,15.11
2022-10-05T22:31:26.205Z,15.15
2022-10-05T22:33:58.150Z,15.19
2022-10-05T22:36:28.947Z,15.18
2022-10-05T22:38:57.976Z,15.17
2022-10-05T22:41:26.939Z,15.27
2022-10-05T22:43:57.194Z,15.32
2022-10-05T22:46:25.949Z,15.27
2022-10-05T22:48:56.870Z,15.27
2022-10-05T22:51:27.456Z,15.18
2022-10-05T22:53:57.032Z,15.22
2022-10-05T22:56:26.026Z,15.31
2022-10-05T22:58:54.841Z,15.48
2022-10-05T23:01:23.711Z,15.56
2022-10-05T23:03:52.365Z,15.58
2022-10-05T23:06:22.512Z,15.62
2022-10-05T23:08:52.705Z,15.62
2022-10-05T23:11:25.888Z,15.70
2022-10-05T23:13:57.106Z,15.74
2022-10-05T23:16:29.271Z,15.73
2022-10-05T23:18:58.519Z,15.72
2022-10-05T23:21:30.887Z,15.72
2022-10-05T23:24:04.029Z,15.74
2022-10-05T23:26:33.844Z,15.83
2022-10-05T23:29:03.255Z,15.86
2022-10-05T23:31:33.696Z,15.80
2022-10-05T23:34:05.159Z,15.85
2022-10-05T23:36:34.274Z,15.80
2022-10-05T23:39:05.046Z,15.76
2022-10-05T23:41:36.451Z,15.82
2022-10-05T23:44:05.467Z,15.68
2022-10-05T23:46:34.291Z,15.71
2022-10-05T23:49:03.221Z,15.72
2022-10-05T23:51:32.125Z,15.75
2022-10-05T23:54:00.902Z,15.85
2022-10-05T23:56:31.608Z,15.81
2022-10-05T23:59:00.333Z,15.87
